الصفحة الرئيسية
METAR-TAF:

METAR-TAF

مطار :

Comanche National Grassland

Springfield, كولورادو, الولايات المتحدة

دائرة عرض: 37-17N, خط طول: 102-37W, ارتفاع: 1335 متر

مراقبة الطقس الحالي

تاريخ ووقت الإصدار 41 دقيقة قبل الساعة 23:56UTC
ريح 9 عقدة من الشمال/الشمال الغربي
درجة الحرارة 10°درجة مئوية
الرطوبة 53%
ضغط 1006 hPa

METAR: KSPD 202356Z AUTO 34009KT 10/01 A2971 RMK AO1 PRESRR SLP037 6//// T01000011 10200 20100 53034

زمن: 17:37 (00:37 UTC)


TAF: مفقودة

أرصاد الطقس والتوقعات من أكثر من 4000 مطار (تقارير الطقس للمطار METAR والتنبؤ بالطقس بالمطارTAF).

المحطات المتاحة هي النقط الصفراء والحمراء على الخريطة.

حرك المؤشر فوق النقطة لمعرفة اسم المحطة.

ثم انقر لمعرفة أرصاد وتوقعات الطقس.

لتغيير الخارطة: اضغط على الأزرار الخضراء مع رمز الصليب الأسود للتكبير. على الزر الأخضر مع شرطة للتصغير، أو على الأسهم الخضراء للخرائط المجاورة.


METAR-TAF: